createdAt,value
2019-01-20T00:00:29.817Z,59.96
2019-01-20T00:01:33.410Z,59.96
2019-01-20T00:02:36.924Z,59.90
2019-01-20T00:03:40.370Z,59.89
2019-01-20T00:04:43.830Z,59.91
2019-01-20T00:05:47.411Z,59.97
2019-01-20T00:06:50.846Z,59.93
2019-01-20T00:07:54.440Z,59.92
2019-01-20T00:08:57.891Z,59.99
2019-01-20T00:10:01.327Z,60.02
2019-01-20T00:11:05.563Z,60.08
2019-01-20T00:12:09.068Z,60.07
2019-01-20T00:13:12.591Z,60.11
2019-01-20T00:14:16.223Z,60.07
2019-01-20T00:15:20.766Z,59.96
2019-01-20T00:16:24.210Z,59.86
2019-01-20T00:17:27.714Z,59.98
2019-01-20T00:18:31.263Z,60.06
2019-01-20T00:19:34.707Z,60.15
2019-01-20T00:20:38.281Z,60.24
2019-01-20T00:21:41.790Z,60.34
2019-01-20T00:22:45.248Z,60.43
2019-01-20T00:23:48.733Z,60.46
2019-01-20T00:24:52.341Z,60.53
2019-01-20T00:25:55.859Z,60.59
2019-01-20T00:26:59.296Z,60.58
2019-01-20T00:28:02.834Z,60.57
2019-01-20T00:29:07.007Z,60.53
2019-01-20T00:30:13.436Z,60.48
2019-01-20T00:31:16.908Z,60.55
2019-01-20T00:32:20.344Z,60.70
2019-01-20T00:33:23.884Z,60.69
2019-01-20T00:34:27.327Z,60.76
2019-01-20T00:35:30.907Z,60.75
2019-01-20T00:36:34.346Z,60.77
2019-01-20T00:37:37.787Z,60.83
2019-01-20T00:38:41.246Z,60.69
2019-01-20T00:39:44.689Z,60.69
2019-01-20T00:40:48.281Z,60.62
2019-01-20T00:41:51.727Z,60.62
2019-01-20T00:42:55.183Z,60.75
2019-01-20T00:43:58.616Z,60.82
2019-01-20T00:45:02.964Z,60.83
2019-01-20T00:46:06.808Z,60.86
2019-01-20T00:47:10.334Z,60.92
2019-01-20T00:48:13.917Z,60.98
2019-01-20T00:49:17.368Z,60.99
2019-01-20T00:50:20.802Z,61.00
2019-01-20T00:51:24.315Z,60.98
2019-01-20T00:52:27.790Z,61.04
2019-01-20T00:53:31.325Z,61.05
2019-01-20T00:54:34.763Z,61.08
2019-01-20T00:55:38.282Z,61.22
2019-01-20T00:56:41.720Z,61.32
2019-01-20T00:57:45.522Z,61.48
2019-01-20T00:58:48.923Z,61.68
2019-01-20T00:59:52.360Z,61.83
2019-01-20T01:00:55.794Z,61.81
2019-01-20T01:01:59.308Z,61.79
2019-01-20T01:03:02.802Z,61.70
2019-01-20T01:04:06.384Z,61.59
2019-01-20T01:05:10.035Z,61.58
2019-01-20T01:06:13.512Z,61.39
2019-01-20T01:07:17.031Z,61.38
2019-01-20T01:08:20.496Z,61.43
2019-01-20T01:09:24.010Z,61.46
2019-01-20T01:10:27.522Z,61.44
2019-01-20T01:11:31.874Z,61.55
2019-01-20T01:12:35.546Z,61.54
2019-01-20T01:13:39.140Z,61.61
2019-01-20T01:14:43.051Z,61.58
2019-01-20T01:15:46.492Z,61.73
2019-01-20T01:16:50.103Z,61.75
2019-01-20T01:17:53.572Z,61.75
2019-01-20T01:18:57.043Z,61.84
2019-01-20T01:20:00.558Z,61.85
2019-01-20T01:21:04.073Z,61.83
2019-01-20T01:22:07.670Z,61.81
2019-01-20T01:23:11.271Z,61.77
2019-01-20T01:24:14.707Z,61.82
2019-01-20T01:25:18.484Z,61.71
2019-01-20T01:26:21.989Z,61.83
2019-01-20T01:27:25.455Z,61.95
2019-01-20T01:28:28.986Z,61.95
2019-01-20T01:29:32.490Z,61.71
2019-01-20T01:30:35.939Z,61.66
2019-01-20T01:31:39.444Z,61.62
2019-01-20T01:32:42.928Z,61.63
2019-01-20T01:33:46.372Z,61.70
2019-01-20T01:34:49.808Z,61.66
2019-01-20T01:35:53.307Z,61.71
2019-01-20T01:36:56.740Z,61.75
2019-01-20T01:38:00.203Z,61.77
2019-01-20T01:39:05.230Z,61.76
2019-01-20T01:40:11.613Z,61.75
2019-01-20T01:41:15.208Z,61.71
2019-01-20T01:42:18.729Z,61.63
2019-01-20T01:43:22.263Z,61.64
2019-01-20T01:44:25.774Z,61.60
2019-01-20T01:45:29.284Z,61.65
2019-01-20T01:46:32.729Z,61.63
2019-01-20T01:47:36.162Z,61.57
2019-01-20T01:48:39.622Z,61.56
2019-01-20T01:49:43.142Z,61.54
2019-01-20T01:50:46.586Z,61.52
2019-01-20T01:51:50.045Z,61.47
2019-01-20T01:52:53.571Z,61.47
2019-01-20T01:53:57.019Z,61.53
2019-01-20T01:55:00.466Z,61.46
2019-01-20T01:56:04.055Z,61.49
2019-01-20T01:57:07.548Z,61.50
2019-01-20T01:58:11.017Z,61.39
2019-01-20T01:59:14.527Z,61.39
2019-01-20T02:00:20.478Z,61.40
2019-01-20T02:01:23.945Z,61.38
2019-01-20T02:02:27.393Z,61.42
2019-01-20T02:03:30.955Z,61.41
2019-01-20T02:04:34.467Z,61.42
2019-01-20T02:05:37.991Z,61.39
2019-01-20T02:06:41.500Z,61.28
2019-01-20T02:07:45.047Z,61.24
2019-01-20T02:08:48.498Z,61.32
2019-01-20T02:09:51.964Z,61.34
2019-01-20T02:10:55.397Z,61.38
2019-01-20T02:11:59.050Z,61.38
2019-01-20T02:13:02.616Z,61.39
2019-01-20T02:14:06.321Z,61.35
2019-01-20T02:15:12.013Z,61.38
2019-01-20T02:16:15.535Z,61.39
2019-01-20T02:17:19.053Z,61.35
2019-01-20T02:18:22.493Z,61.27
2019-01-20T02:19:26.033Z,61.26
2019-01-20T02:20:29.565Z,61.30
2019-01-20T02:21:33.149Z,61.36
2019-01-20T02:22:36.762Z,61.41
2019-01-20T02:23:40.220Z,61.40
2019-01-20T02:24:43.678Z,61.51
2019-01-20T02:25:47.141Z,61.53
2019-01-20T02:26:50.598Z,61.43
2019-01-20T02:27:54.773Z,61.40
2019-01-20T02:28:58.223Z,61.40
2019-01-20T02:30:01.758Z,61.45
2019-01-20T02:31:05.398Z,61.37
2019-01-20T02:32:08.906Z,61.37
2019-01-20T02:33:12.414Z,61.37
2019-01-20T02:34:15.891Z,61.46
2019-01-20T02:35:19.531Z,61.50
2019-01-20T02:36:22.972Z,61.57
2019-01-20T02:37:26.484Z,61.55
2019-01-20T02:38:29.925Z,61.61
2019-01-20T02:39:33.372Z,61.53
2019-01-20T02:40:36.837Z,61.54
2019-01-20T02:41:40.278Z,61.60
2019-01-20T02:42:43.706Z,61.54
2019-01-20T02:43:47.222Z,61.47
2019-01-20T02:44:50.656Z,61.47
2019-01-20T02:45:54.178Z,61.51
2019-01-20T02:46:57.632Z,61.65
2019-01-20T02:48:01.162Z,61.71
2019-01-20T02:49:04.735Z,61.67
2019-01-20T02:50:11.136Z,61.51
2019-01-20T02:51:14.576Z,61.47
2019-01-20T02:52:18.027Z,61.43
2019-01-20T02:53:21.492Z,61.43
2019-01-20T02:54:25.078Z,61.43
2019-01-20T02:55:28.678Z,61.42
2019-01-20T02:56:32.121Z,61.43
2019-01-20T02:57:35.650Z,61.42
2019-01-20T02:58:39.086Z,61.34
2019-01-20T02:59:42.604Z,61.36
2019-01-20T03:00:46.184Z,61.29
2019-01-20T03:01:49.762Z,61.30
2019-01-20T03:02:53.288Z,61.27
2019-01-20T03:03:56.793Z,61.08
2019-01-20T03:05:00.263Z,61.05
2019-01-20T03:06:03.894Z,61.14
2019-01-20T03:07:07.330Z,61.37
2019-01-20T03:08:10.768Z,61.43
2019-01-20T03:09:14.204Z,61.38
2019-01-20T03:10:17.806Z,61.45
2019-01-20T03:11:21.398Z,61.54
2019-01-20T03:12:24.908Z,61.65
2019-01-20T03:13:28.346Z,61.67
2019-01-20T03:14:31.858Z,61.61
2019-01-20T03:15:35.458Z,61.55
2019-01-20T03:16:38.967Z,61.57
2019-01-20T03:17:42.478Z,61.72
2019-01-20T03:18:45.988Z,61.81
2019-01-20T03:19:49.497Z,61.80
2019-01-20T03:20:52.945Z,61.72
2019-01-20T03:21:56.478Z,61.77
2019-01-20T03:22:59.914Z,61.71
2019-01-20T03:24:03.352Z,61.66
2019-01-20T03:25:09.850Z,61.54
2019-01-20T03:26:13.315Z,61.38
2019-01-20T03:27:16.777Z,61.35
2019-01-20T03:28:20.217Z,61.45
2019-01-20T03:29:23.652Z,61.47
2019-01-20T03:30:27.112Z,61.48
2019-01-20T03:31:30.633Z,61.34
2019-01-20T03:32:34.078Z,61.34
2019-01-20T03:33:37.581Z,61.34
2019-01-20T03:34:41.031Z,61.33
2019-01-20T03:35:44.559Z,61.32
2019-01-20T03:36:48.003Z,61.30
2019-01-20T03:37:51.520Z,61.08
2019-01-20T03:38:54.977Z,61.01
2019-01-20T03:39:58.423Z,61.01
2019-01-20T03:41:01.944Z,61.09
2019-01-20T03:42:11.931Z,61.13
2019-01-20T03:43:10.848Z,61.21
2019-01-20T03:44:14.357Z,61.25
2019-01-20T03:45:21.160Z,61.31
2019-01-20T03:46:24.630Z,61.35
2019-01-20T03:47:28.141Z,61.24
2019-01-20T03:48:31.643Z,61.26
2019-01-20T03:49:35.155Z,61.26
2019-01-20T03:50:38.611Z,61.28
2019-01-20T03:51:42.049Z,61.23
2019-01-20T03:52:45.740Z,61.16
2019-01-20T03:53:49.251Z,61.16
2019-01-20T03:54:52.762Z,61.19
2019-01-20T03:55:56.364Z,61.17
2019-01-20T03:56:59.973Z,61.10
2019-01-20T03:58:03.478Z,61.17
2019-01-20T03:59:06.981Z,61.18
2019-01-20T04:00:13.535Z,61.13
2019-01-20T04:01:16.988Z,61.07
2019-01-20T04:02:21.922Z,61.09
2019-01-20T04:03:25.364Z,61.21
2019-01-20T04:04:28.805Z,61.25
2019-01-20T04:05:32.337Z,61.25
2019-01-20T04:06:35.850Z,61.11
2019-01-20T04:07:39.292Z,61.10
2019-01-20T04:08:42.735Z,61.14
2019-01-20T04:09:46.169Z,61.11
2019-01-20T04:10:49.627Z,61.19
2019-01-20T04:11:53.065Z,61.13
2019-01-20T04:12:56.579Z,61.05
2019-01-20T04:14:00.009Z,60.88
2019-01-20T04:15:03.585Z,60.87
2019-01-20T04:16:07.030Z,60.93
2019-01-20T04:17:18.499Z,60.97
2019-01-20T04:18:21.940Z,60.94
2019-01-20T04:19:25.383Z,60.87
2019-01-20T04:20:28.851Z,60.92
2019-01-20T04:21:32.392Z,61.00
2019-01-20T04:22:35.892Z,61.04
2019-01-20T04:23:39.337Z,61.04
2019-01-20T04:24:42.812Z,61.04
2019-01-20T04:25:47.711Z,61.09
2019-01-20T04:26:51.154Z,61.04
2019-01-20T04:27:54.661Z,61.06
2019-01-20T04:28:58.101Z,61.11
2019-01-20T04:30:01.534Z,61.03
2019-01-20T04:31:05.075Z,60.98
2019-01-20T04:32:08.512Z,61.01
2019-01-20T04:33:12.018Z,60.95
2019-01-20T04:34:15.468Z,60.91
2019-01-20T04:35:19.046Z,60.89
2019-01-20T04:36:22.510Z,61.01
2019-01-20T04:37:26.035Z,61.11
2019-01-20T04:38:29.472Z,61.20
2019-01-20T04:39:32.986Z,61.16
2019-01-20T04:40:36.468Z,61.08
2019-01-20T04:41:39.973Z,60.97
2019-01-20T04:42:43.486Z,60.85
2019-01-20T04:43:46.930Z,60.84
2019-01-20T04:44:50.372Z,60.85
2019-01-20T04:45:53.863Z,60.79
2019-01-20T04:46:57.370Z,60.76
2019-01-20T04:48:00.815Z,60.73
2019-01-20T04:49:04.400Z,60.84
2019-01-20T04:50:13.668Z,60.92
2019-01-20T04:51:17.121Z,60.82
2019-01-20T04:52:20.639Z,60.87
2019-01-20T04:53:24.152Z,60.89
2019-01-20T04:54:27.668Z,60.83
2019-01-20T04:55:31.122Z,60.73
2019-01-20T04:56:34.581Z,60.71
2019-01-20T04:57:38.330Z,60.70
2019-01-20T04:58:41.766Z,60.61
2019-01-20T04:59:45.207Z,60.58
2019-01-20T05:00:48.670Z,60.56
2019-01-20T05:01:52.196Z,60.57
2019-01-20T05:02:55.699Z,60.65
2019-01-20T05:03:59.134Z,60.66
2019-01-20T05:05:02.716Z,60.62
2019-01-20T05:06:06.274Z,60.67
2019-01-20T05:07:09.706Z,60.73
2019-01-20T05:08:13.172Z,60.67
2019-01-20T05:09:16.662Z,60.67
2019-01-20T05:10:20.196Z,60.67
2019-01-20T05:11:23.710Z,60.62
2019-01-20T05:12:27.171Z,60.59
2019-01-20T05:13:30.608Z,60.56
2019-01-20T05:14:34.103Z,60.59
2019-01-20T05:15:37.609Z,60.61
2019-01-20T05:16:41.174Z,60.65
2019-01-20T05:17:44.683Z,60.75
2019-01-20T05:18:48.253Z,60.77
2019-01-20T05:19:51.700Z,60.82
2019-01-20T05:20:55.166Z,60.88
2019-01-20T05:21:58.602Z,60.86
2019-01-20T05:23:02.039Z,60.93
2019-01-20T05:24:05.477Z,60.91
2019-01-20T05:25:10.852Z,60.84
2019-01-20T05:26:14.390Z,60.90
2019-01-20T05:27:17.835Z,60.79
2019-01-20T05:28:21.277Z,60.76
2019-01-20T05:29:24.725Z,60.80
2019-01-20T05:30:28.336Z,60.96
2019-01-20T05:31:31.847Z,61.18
2019-01-20T05:32:35.287Z,61.29
2019-01-20T05:33:38.734Z,61.32
2019-01-20T05:34:42.186Z,61.37
2019-01-20T05:35:45.647Z,61.19
2019-01-20T05:36:49.092Z,61.22
2019-01-20T05:37:52.598Z,61.20
2019-01-20T05:38:56.037Z,61.21
2019-01-20T05:39:59.480Z,61.32
2019-01-20T05:41:02.942Z,61.38
2019-01-20T05:42:06.450Z,61.48
2019-01-20T05:43:09.889Z,61.50
2019-01-20T05:44:13.322Z,61.49
2019-01-20T05:45:22.052Z,61.50
2019-01-20T05:46:25.519Z,61.42
2019-01-20T05:47:29.034Z,61.37
2019-01-20T05:48:32.893Z,61.36
2019-01-20T05:49:36.289Z,61.28
2019-01-20T05:50:39.819Z,61.22
2019-01-20T05:51:43.242Z,61.26
2019-01-20T05:52:46.749Z,61.36
2019-01-20T05:53:50.198Z,61.41
2019-01-20T05:54:53.721Z,61.40
2019-01-20T05:55:57.156Z,61.33
2019-01-20T05:57:00.648Z,61.19
2019-01-20T05:58:04.137Z,61.08
2019-01-20T05:59:07.540Z,61.02
2019-01-20T06:00:14.091Z,60.97
2019-01-20T06:01:17.547Z,60.97
2019-01-20T06:02:20.985Z,60.95
2019-01-20T06:03:24.429Z,60.95
2019-01-20T06:04:27.858Z,60.95
2019-01-20T06:05:31.339Z,61.01
2019-01-20T06:06:34.748Z,61.00
2019-01-20T06:07:38.270Z,61.04
2019-01-20T06:08:41.702Z,61.05
2019-01-20T06:09:45.149Z,60.91
2019-01-20T06:10:48.620Z,60.88
2019-01-20T06:11:52.070Z,60.93
2019-01-20T06:12:55.683Z,60.95
2019-01-20T06:13:59.121Z,61.05
2019-01-20T06:15:02.567Z,61.20
2019-01-20T06:16:06.047Z,61.24
2019-01-20T06:17:09.518Z,61.23
2019-01-20T06:18:12.966Z,61.21
2019-01-20T06:19:16.392Z,61.25
2019-01-20T06:20:19.965Z,61.21
2019-01-20T06:21:23.433Z,61.23
2019-01-20T06:22:26.877Z,61.13
2019-01-20T06:23:30.323Z,61.14
2019-01-20T06:24:35.343Z,61.15
2019-01-20T06:25:39.300Z,61.22
2019-01-20T06:26:42.955Z,61.28
2019-01-20T06:27:46.470Z,61.31
2019-01-20T06:28:49.915Z,61.30
2019-01-20T06:29:53.455Z,61.28
2019-01-20T06:30:56.891Z,61.31
2019-01-20T06:32:00.351Z,61.42
2019-01-20T06:33:03.857Z,61.45
2019-01-20T06:34:07.298Z,61.43
2019-01-20T06:35:10.816Z,61.41
2019-01-20T06:36:14.257Z,61.46
2019-01-20T06:37:17.791Z,61.48
2019-01-20T06:38:21.228Z,61.49
2019-01-20T06:39:24.668Z,61.46
2019-01-20T06:40:28.240Z,61.43
2019-01-20T06:41:31.713Z,61.42
2019-01-20T06:42:35.144Z,61.39
2019-01-20T06:43:38.650Z,61.35
2019-01-20T06:44:42.089Z,61.36
2019-01-20T06:45:45.612Z,61.37
2019-01-20T06:46:49.067Z,61.33
2019-01-20T06:47:52.598Z,61.08
2019-01-20T06:48:56.078Z,61.21
2019-01-20T06:49:59.524Z,61.16
2019-01-20T06:51:02.986Z,60.98
2019-01-20T06:52:06.509Z,60.91
2019-01-20T06:53:10.014Z,60.85
2019-01-20T06:54:13.463Z,60.93
2019-01-20T06:55:17.081Z,61.06
2019-01-20T06:56:20.614Z,61.18
2019-01-20T06:57:24.069Z,61.14
2019-01-20T06:58:27.505Z,61.14
2019-01-20T06:59:30.981Z,61.20
2019-01-20T07:00:34.458Z,61.23
2019-01-20T07:01:37.898Z,61.13
2019-01-20T07:02:41.363Z,61.10
2019-01-20T07:03:44.873Z,61.02
2019-01-20T07:04:48.467Z,61.01
2019-01-20T07:05:51.909Z,60.99
2019-01-20T07:06:55.344Z,60.94
2019-01-20T07:07:58.912Z,60.88
2019-01-20T07:09:02.340Z,60.84
2019-01-20T07:10:08.712Z,60.84
2019-01-20T07:11:12.243Z,60.82
2019-01-20T07:12:15.656Z,60.91
2019-01-20T07:13:19.122Z,60.89
2019-01-20T07:14:22.555Z,60.82
2019-01-20T07:15:26.057Z,60.91
2019-01-20T07:16:29.563Z,60.91
2019-01-20T07:17:33.002Z,60.96
2019-01-20T07:18:36.492Z,60.92
2019-01-20T07:19:39.939Z,60.88
2019-01-20T07:20:43.520Z,60.90
2019-01-20T07:21:46.953Z,60.81
2019-01-20T07:22:50.635Z,60.82
2019-01-20T07:23:54.151Z,60.87
2019-01-20T07:24:57.595Z,60.83
2019-01-20T07:26:01.039Z,60.72
2019-01-20T07:27:04.844Z,60.67
2019-01-20T07:28:08.302Z,60.60
2019-01-20T07:29:11.809Z,60.61
2019-01-20T07:30:22.299Z,60.49
2019-01-20T07:31:25.803Z,60.45
2019-01-20T07:32:29.318Z,60.27
2019-01-20T07:33:32.782Z,60.27
2019-01-20T07:34:36.382Z,60.37
2019-01-20T07:35:39.908Z,60.50
2019-01-20T07:36:43.479Z,60.62
2019-01-20T07:37:47.191Z,60.70
2019-01-20T07:38:50.639Z,60.81
2019-01-20T07:39:54.250Z,60.95
2019-01-20T07:40:57.696Z,61.07
2019-01-20T07:42:01.213Z,60.95
2019-01-20T07:43:04.798Z,60.95
2019-01-20T07:44:08.236Z,60.87
2019-01-20T07:45:13.223Z,60.78
2019-01-20T07:46:16.667Z,60.64
2019-01-20T07:47:20.102Z,60.66
2019-01-20T07:48:23.565Z,60.48
2019-01-20T07:49:27.069Z,60.27
2019-01-20T07:50:30.742Z,60.34
2019-01-20T07:51:34.197Z,60.47
2019-01-20T07:52:37.631Z,60.51
2019-01-20T07:53:41.100Z,60.55
2019-01-20T07:54:44.615Z,60.52
2019-01-20T07:55:48.056Z,60.48
2019-01-20T07:56:51.608Z,60.52
2019-01-20T07:57:55.060Z,60.52
2019-01-20T07:58:58.590Z,60.48
2019-01-20T08:00:02.025Z,60.38
2019-01-20T08:01:05.533Z,60.13
2019-01-20T08:02:08.962Z,59.93
2019-01-20T08:03:12.452Z,59.91
2019-01-20T08:04:15.893Z,59.90
2019-01-20T08:05:19.758Z,59.99
2019-01-20T08:06:23.210Z,60.13
2019-01-20T08:07:26.653Z,60.10
2019-01-20T08:08:30.121Z,60.00
2019-01-20T08:09:33.563Z,59.97
2019-01-20T08:10:37.037Z,59.93
2019-01-20T08:11:40.850Z,59.90
2019-01-20T08:12:44.361Z,59.84
2019-01-20T08:13:47.844Z,59.80
2019-01-20T08:14:51.414Z,59.95
2019-01-20T08:15:54.857Z,59.80
2019-01-20T08:16:58.360Z,59.71
2019-01-20T08:18:01.845Z,59.62
2019-01-20T08:19:05.358Z,59.67
2019-01-20T08:20:14.180Z,59.50
2019-01-20T08:21:17.611Z,59.46
2019-01-20T08:22:21.123Z,59.35
2019-01-20T08:23:24.575Z,59.28
2019-01-20T08:24:28.007Z,59.25
2019-01-20T08:25:31.506Z,59.01
2019-01-20T08:26:34.938Z,58.80
2019-01-20T08:27:38.445Z,58.75
2019-01-20T08:28:41.907Z,58.64
2019-01-20T08:29:45.343Z,58.44
2019-01-20T08:30:48.860Z,58.58
2019-01-20T08:31:52.306Z,58.34
2019-01-20T08:32:56.301Z,58.36
2019-01-20T08:33:59.805Z,58.36
2019-01-20T08:35:03.700Z,58.39
2019-01-20T08:36:07.207Z,58.29
2019-01-20T08:37:10.641Z,58.15
2019-01-20T08:38:14.151Z,58.23
2019-01-20T08:39:17.603Z,58.12
2019-01-20T08:40:26.555Z,58.21
2019-01-20T08:41:29.983Z,58.05
2019-01-20T08:42:33.533Z,57.93
2019-01-20T08:43:37.430Z,58.04
2019-01-20T08:44:40.872Z,58.03
2019-01-20T08:45:53.138Z,58.16
2019-01-20T08:46:56.644Z,58.10
2019-01-20T08:48:03.209Z,57.92
2019-01-20T08:49:06.809Z,57.73
2019-01-20T08:50:11.081Z,57.32
2019-01-20T08:51:14.588Z,57.55
2019-01-20T08:52:18.039Z,57.52
2019-01-20T08:53:21.552Z,57.55
2019-01-20T08:54:25.006Z,57.50
2019-01-20T08:55:28.424Z,57.52
2019-01-20T08:56:31.931Z,57.37
2019-01-20T08:57:35.437Z,57.30
2019-01-20T08:58:38.972Z,57.25
2019-01-20T08:59:42.412Z,57.21
2019-01-20T09:00:45.925Z,57.08
2019-01-20T09:01:49.359Z,56.95
2019-01-20T09:02:52.869Z,56.86
2019-01-20T09:03:56.510Z,56.88
2019-01-20T09:05:00.016Z,56.85
2019-01-20T09:06:03.523Z,56.91
2019-01-20T09:07:07.290Z,56.64
2019-01-20T09:08:12.463Z,56.42
2019-01-20T09:09:16.101Z,56.40
2019-01-20T09:10:22.537Z,55.94
2019-01-20T09:11:26.130Z,55.94
2019-01-20T09:12:30.236Z,56.20
2019-01-20T09:13:39.571Z,56.17
2019-01-20T09:14:39.248Z,56.14
2019-01-20T09:15:42.844Z,56.32
2019-01-20T09:16:46.287Z,56.45
2019-01-20T09:17:49.861Z,56.52
2019-01-20T09:18:53.376Z,56.47
2019-01-20T09:19:56.931Z,56.42
2019-01-20T09:21:00.465Z,56.46
2019-01-20T09:22:04.187Z,56.23
2019-01-20T09:23:07.688Z,56.28
2019-01-20T09:24:11.192Z,55.78
2019-01-20T09:25:15.402Z,55.91
2019-01-20T09:26:19.032Z,55.80
2019-01-20T09:27:22.526Z,55.54
2019-01-20T09:28:25.971Z,55.99
2019-01-20T09:29:29.409Z,56.24
2019-01-20T09:30:33.041Z,56.70
2019-01-20T09:31:36.563Z,56.63
2019-01-20T09:32:40.293Z,56.17
2019-01-20T09:33:44.042Z,55.59
2019-01-20T09:34:47.475Z,55.52
2019-01-20T09:35:50.959Z,55.58
2019-01-20T09:36:54.471Z,55.56
2019-01-20T09:37:57.911Z,55.25
2019-01-20T09:39:01.413Z,55.18
2019-01-20T09:40:07.172Z,55.32
2019-01-20T09:41:10.623Z,55.42
2019-01-20T09:42:14.082Z,55.39
2019-01-20T09:43:17.565Z,55.26
2019-01-20T09:44:20.996Z,54.96
2019-01-20T09:45:30.139Z,54.92
2019-01-20T09:46:33.648Z,54.53
2019-01-20T09:47:37.168Z,54.12
2019-01-20T09:48:40.683Z,54.38
2019-01-20T09:49:44.117Z,54.28
2019-01-20T09:50:47.634Z,54.25
2019-01-20T09:51:51.476Z,54.13
2019-01-20T09:52:54.971Z,54.15
2019-01-20T09:53:58.461Z,54.15
2019-01-20T09:55:01.895Z,54.10
2019-01-20T09:56:05.666Z,53.73
2019-01-20T09:57:09.150Z,53.81
2019-01-20T09:58:12.826Z,53.72
2019-01-20T09:59:16.331Z,53.46
2019-01-20T10:00:22.407Z,53.59
2019-01-20T10:01:25.860Z,53.73
2019-01-20T10:02:29.369Z,53.69
2019-01-20T10:03:32.962Z,53.74
2019-01-20T10:04:36.399Z,53.81
2019-01-20T10:05:39.987Z,53.87
2019-01-20T10:06:43.662Z,53.85
2019-01-20T10:07:47.233Z,53.79
2019-01-20T10:08:50.680Z,53.75
2019-01-20T10:09:54.157Z,53.63
2019-01-20T10:10:57.654Z,53.56
2019-01-20T10:12:01.231Z,53.56
2019-01-20T10:13:04.753Z,53.46
2019-01-20T10:14:08.205Z,53.54
2019-01-20T10:15:14.333Z,53.63
2019-01-20T10:16:17.896Z,53.59
2019-01-20T10:17:21.377Z,53.56
2019-01-20T10:18:24.839Z,53.48
2019-01-20T10:19:28.408Z,53.35
2019-01-20T10:20:36.635Z,53.30
2019-01-20T10:21:40.179Z,53.30
2019-01-20T10:22:43.690Z,53.16
2019-01-20T10:23:47.131Z,53.28
2019-01-20T10:24:50.689Z,53.11
2019-01-20T10:25:54.195Z,53.05
2019-01-20T10:26:57.646Z,52.97
2019-01-20T10:28:01.150Z,52.75
2019-01-20T10:29:04.724Z,52.31
2019-01-20T10:30:13.899Z,52.59
2019-01-20T10:31:17.405Z,52.85
2019-01-20T10:32:20.940Z,52.87
2019-01-20T10:33:24.373Z,52.49
2019-01-20T10:34:27.802Z,52.60
2019-01-20T10:35:32.944Z,52.71
2019-01-20T10:36:36.382Z,52.71
2019-01-20T10:37:40.002Z,52.70
2019-01-20T10:38:43.436Z,52.53
2019-01-20T10:39:46.958Z,52.11
2019-01-20T10:40:50.568Z,51.97
2019-01-20T10:41:54.153Z,51.71
2019-01-20T10:42:57.575Z,51.54
2019-01-20T10:44:02.271Z,51.17
2019-01-20T10:45:08.859Z,51.16
2019-01-20T10:46:12.573Z,51.43
2019-01-20T10:47:16.118Z,51.45
2019-01-20T10:48:19.718Z,50.85
2019-01-20T10:49:23.146Z,50.48
2019-01-20T10:50:26.733Z,50.56
2019-01-20T10:51:30.176Z,51.38
2019-01-20T10:52:33.708Z,51.33
2019-01-20T10:53:37.213Z,51.47
2019-01-20T10:54:40.791Z,51.68
2019-01-20T10:55:44.297Z,51.69
2019-01-20T10:56:52.214Z,51.62
2019-01-20T10:57:55.646Z,51.46
2019-01-20T10:58:59.242Z,51.63
2019-01-20T11:00:02.821Z,51.74
2019-01-20T11:01:06.318Z,51.69
2019-01-20T11:02:09.936Z,51.54
2019-01-20T11:03:13.505Z,51.35
2019-01-20T11:04:17.047Z,51.15
2019-01-20T11:05:25.031Z,51.11
2019-01-20T11:06:25.934Z,50.86
2019-01-20T11:07:29.396Z,51.12
2019-01-20T11:08:32.843Z,51.14
2019-01-20T11:09:36.287Z,50.81
2019-01-20T11:10:40.198Z,50.88
2019-01-20T11:11:43.752Z,50.97
2019-01-20T11:12:47.426Z,51.11
2019-01-20T11:13:51.043Z,51.09
2019-01-20T11:14:54.580Z,51.18
2019-01-20T11:15:58.039Z,51.34
2019-01-20T11:17:01.643Z,51.48
2019-01-20T11:18:05.343Z,51.59
2019-01-20T11:19:08.943Z,51.60
2019-01-20T11:20:18.163Z,51.60
2019-01-20T11:21:21.731Z,51.71
2019-01-20T11:22:25.273Z,51.80
2019-01-20T11:23:32.873Z,51.95
2019-01-20T11:24:36.053Z,52.05
2019-01-20T11:25:42.279Z,52.08
2019-01-20T11:26:45.842Z,52.15
2019-01-20T11:27:49.419Z,52.27
2019-01-20T11:28:52.942Z,52.35
2019-01-20T11:29:56.449Z,52.35
2019-01-20T11:31:00.161Z,52.28
2019-01-20T11:32:03.747Z,52.26
2019-01-20T11:33:07.466Z,52.24
2019-01-20T11:34:11.047Z,52.20
2019-01-20T11:35:19.292Z,52.40
2019-01-20T11:36:22.946Z,52.60
2019-01-20T11:37:26.469Z,52.82
2019-01-20T11:38:29.984Z,52.70
2019-01-20T11:39:33.560Z,52.76
2019-01-20T11:40:37.067Z,52.80
2019-01-20T11:41:40.505Z,52.82
2019-01-20T11:42:44.108Z,52.75
2019-01-20T11:43:47.704Z,52.81
2019-01-20T11:44:51.157Z,52.90
2019-01-20T11:45:54.682Z,52.97
2019-01-20T11:46:58.199Z,52.95
2019-01-20T11:48:01.783Z,53.09
2019-01-20T11:49:05.433Z,53.20
2019-01-20T11:50:12.001Z,53.29
2019-01-20T11:51:15.495Z,53.30
2019-01-20T11:52:19.117Z,53.33
2019-01-20T11:53:22.815Z,53.30
2019-01-20T11:54:26.252Z,53.31
2019-01-20T11:55:29.901Z,53.46
2019-01-20T11:56:33.485Z,53.76
2019-01-20T11:57:37.025Z,53.76
2019-01-20T11:58:40.909Z,53.78
2019-01-20T11:59:44.403Z,53.91
2019-01-20T12:00:47.920Z,54.01
2019-01-20T12:01:51.354Z,54.00
2019-01-20T12:02:54.878Z,53.98
2019-01-20T12:03:58.307Z,53.88
2019-01-20T12:05:01.841Z,53.87
2019-01-20T12:06:05.625Z,53.90
2019-01-20T12:07:09.319Z,53.98
2019-01-20T12:08:13.058Z,54.07
2019-01-20T12:09:16.592Z,54.13
2019-01-20T12:10:20.275Z,54.10
2019-01-20T12:11:23.789Z,54.06
2019-01-20T12:12:27.828Z,54.18
2019-01-20T12:13:31.669Z,53.98
2019-01-20T12:14:35.335Z,54.24
2019-01-20T12:15:39.190Z,54.24
2019-01-20T12:16:42.694Z,54.20
2019-01-20T12:17:46.289Z,54.17
2019-01-20T12:18:50.497Z,54.13
2019-01-20T12:19:54.087Z,54.19
2019-01-20T12:20:57.622Z,54.11
2019-01-20T12:22:01.107Z,54.06
2019-01-20T12:23:05.415Z,53.85
2019-01-20T12:24:08.944Z,53.81
2019-01-20T12:25:17.852Z,53.43
2019-01-20T12:26:21.433Z,53.36
2019-01-20T12:27:24.897Z,53.56
2019-01-20T12:28:28.327Z,53.74
2019-01-20T12:29:31.836Z,53.87
2019-01-20T12:30:39.400Z,53.81
2019-01-20T12:31:42.826Z,53.75
2019-01-20T12:32:46.486Z,53.71
2019-01-20T12:33:49.919Z,53.76
2019-01-20T12:34:53.424Z,53.85
2019-01-20T12:35:57.127Z,53.96
2019-01-20T12:37:00.570Z,53.94
2019-01-20T12:38:04.409Z,54.03
2019-01-20T12:39:08.722Z,54.07
2019-01-20T12:40:15.770Z,54.07
2019-01-20T12:41:19.340Z,54.05
2019-01-20T12:42:23.062Z,54.04
2019-01-20T12:43:26.717Z,54.04
2019-01-20T12:44:31.579Z,54.14
2019-01-20T12:45:35.267Z,54.23
2019-01-20T12:46:39.156Z,54.52
2019-01-20T12:47:42.846Z,54.50
2019-01-20T12:48:46.426Z,54.73
2019-01-20T12:49:50.256Z,54.81
2019-01-20T12:50:58.428Z,54.92
2019-01-20T12:52:19.972Z,55.08
2019-01-20T12:53:23.690Z,54.95
2019-01-20T12:54:27.237Z,54.94
2019-01-20T12:55:31.356Z,55.07
2019-01-20T12:56:34.912Z,54.90
2019-01-20T12:57:38.509Z,54.94
2019-01-20T12:58:42.084Z,55.01
2019-01-20T12:59:45.685Z,55.13
2019-01-20T13:00:49.208Z,55.22
2019-01-20T13:01:52.646Z,55.21
2019-01-20T13:02:56.350Z,55.23
2019-01-20T13:03:59.936Z,55.29
2019-01-20T13:05:04.625Z,55.40
2019-01-20T13:06:08.129Z,55.18
2019-01-20T13:07:11.719Z,55.26
2019-01-20T13:08:15.262Z,55.34
2019-01-20T13:09:20.621Z,55.44
2019-01-20T13:10:24.292Z,55.60
2019-01-20T13:11:27.808Z,55.69
2019-01-20T13:12:31.380Z,55.70
2019-01-20T13:13:34.984Z,55.80
2019-01-20T13:14:39.092Z,55.85
2019-01-20T13:15:42.902Z,55.91
2019-01-20T13:16:46.445Z,55.94
2019-01-20T13:17:49.985Z,55.93
2019-01-20T13:18:53.449Z,55.92
2019-01-20T13:19:57.020Z,56.03
2019-01-20T13:21:00.532Z,56.19
2019-01-20T13:22:04.049Z,56.45
2019-01-20T13:23:07.666Z,56.68
2019-01-20T13:24:11.114Z,56.79
2019-01-20T13:25:17.559Z,56.81
2019-01-20T13:26:21.018Z,56.90
2019-01-20T13:27:24.552Z,57.03
2019-01-20T13:28:28.197Z,57.13
2019-01-20T13:29:31.603Z,57.29
2019-01-20T13:30:35.184Z,57.41
2019-01-20T13:31:38.791Z,57.49
2019-01-20T13:32:42.512Z,57.60
2019-01-20T13:33:46.051Z,57.71
2019-01-20T13:34:49.608Z,57.71
2019-01-20T13:35:53.187Z,57.78
2019-01-20T13:36:56.708Z,58.15
2019-01-20T13:38:08.542Z,58.34
2019-01-20T13:39:12.337Z,58.42
2019-01-20T13:40:27.575Z,58.38
2019-01-20T13:41:31.410Z,58.33